createdAt,value
2023-02-08T00:01:27.050Z,-2.17
2023-02-08T00:04:13.853Z,-2.44
2023-02-08T00:07:00.671Z,-2.51
2023-02-08T00:09:47.556Z,-2.48
2023-02-08T00:12:34.777Z,-2.45
2023-02-08T00:15:21.766Z,-2.32
2023-02-08T00:18:09.832Z,-2.43
2023-02-08T00:20:57.415Z,-2.49
2023-02-08T00:23:44.273Z,-2.51
2023-02-08T00:26:31.184Z,-2.32
2023-02-08T00:29:18.126Z,-2.23
2023-02-08T00:32:05.213Z,-2.35
2023-02-08T00:34:53.093Z,-2.33
2023-02-08T00:37:39.977Z,-2.19
2023-02-08T00:40:27.776Z,-2.28
2023-02-08T00:43:14.469Z,-2.42
2023-02-08T00:46:02.550Z,-2.44
2023-02-08T00:48:49.680Z,-2.43
2023-02-08T00:51:37.850Z,-2.35
2023-02-08T00:54:24.780Z,-2.32
2023-02-08T00:57:11.768Z,-2.14
2023-02-08T00:59:58.208Z,-2.22
2023-02-08T01:02:44.942Z,-2.19
2023-02-08T01:05:31.856Z,-2.19
2023-02-08T01:08:21.415Z,-2.31
2023-02-08T01:11:10.743Z,-2.38
2023-02-08T01:13:58.646Z,-2.36
2023-02-08T01:16:45.671Z,-2.40
2023-02-08T01:19:33.857Z,-2.51
2023-02-08T01:22:23.085Z,-2.54
2023-02-08T01:25:11.332Z,-2.33
2023-02-08T01:27:57.961Z,-2.28
2023-02-08T01:30:44.731Z,-2.17
2023-02-08T01:33:31.352Z,-2.25
2023-02-08T01:36:20.112Z,-2.33
2023-02-08T01:39:08.723Z,-3.24
2023-02-08T01:41:56.608Z,-2.53
2023-02-08T01:45:30.044Z,-2.49
2023-02-08T01:48:21.362Z,-2.34
2023-02-08T01:51:12.214Z,-2.42
2023-02-08T01:54:01.845Z,-2.51
2023-02-08T01:56:49.897Z,-2.56
2023-02-08T01:59:43.091Z,-2.58
2023-02-08T02:02:30.280Z,-2.47
2023-02-08T02:05:18.658Z,-2.46
2023-02-08T02:08:06.962Z,-2.50
2023-02-08T02:10:53.839Z,-2.51
2023-02-08T02:13:41.461Z,-2.57
2023-02-08T02:16:29.792Z,-2.57
2023-02-08T02:19:27.591Z,-2.58
2023-02-08T02:22:40.933Z,-2.52
2023-02-08T02:25:59.436Z,-2.46
2023-02-08T02:29:23.589Z,-2.58
2023-02-08T02:32:21.041Z,-2.61
2023-02-08T02:35:20.346Z,-2.69
2023-02-08T02:38:15.587Z,-2.60
2023-02-08T02:41:10.485Z,-2.70
2023-02-08T02:44:00.326Z,-2.83
2023-02-08T02:46:54.999Z,-2.84
2023-02-08T02:49:51.704Z,-2.91
2023-02-08T02:52:43.913Z,-2.87
2023-02-08T02:55:34.085Z,-2.89
2023-02-08T02:58:23.039Z,-3.00
2023-02-08T03:01:09.678Z,-2.93
2023-02-08T03:03:56.770Z,-2.98
2023-02-08T03:06:59.505Z,-2.77
2023-02-08T03:10:03.080Z,-2.79
2023-02-08T03:12:59.568Z,-2.83
2023-02-08T03:15:59.512Z,-2.77
2023-02-08T03:19:00.519Z,-2.95
2023-02-08T03:21:56.117Z,-2.91
2023-02-08T03:24:51.173Z,-2.82
2023-02-08T03:27:46.084Z,-2.72
2023-02-08T03:30:45.411Z,-2.77
2023-02-08T03:33:36.288Z,-2.91
2023-02-08T03:36:28.673Z,-2.66
2023-02-08T03:39:20.966Z,-2.84
2023-02-08T03:42:15.585Z,-3.03
2023-02-08T03:45:06.810Z,-2.92
2023-02-08T03:47:58.243Z,-3.11
2023-02-08T03:50:50.388Z,-2.91
2023-02-08T03:53:40.635Z,-2.86
2023-02-08T03:56:37.639Z,-3.03
2023-02-08T03:59:29.401Z,-3.15
2023-02-08T04:02:21.312Z,-2.94
2023-02-08T04:05:09.162Z,-3.03
2023-02-08T04:07:55.723Z,-3.08
2023-02-08T04:10:42.877Z,-3.09
2023-02-08T04:13:31.363Z,-3.21
2023-02-08T04:16:18.028Z,-3.31
2023-02-08T04:19:04.833Z,-3.31
2023-02-08T04:21:51.757Z,-3.34
2023-02-08T04:24:38.292Z,-3.15
2023-02-08T04:27:24.967Z,-3.19
2023-02-08T04:30:14.378Z,-3.22
2023-02-08T04:33:01.136Z,-3.17
2023-02-08T04:35:47.827Z,-3.13
2023-02-08T04:38:34.795Z,-3.14
2023-02-08T04:41:21.682Z,-3.21
2023-02-08T04:44:08.305Z,-3.13
2023-02-08T04:46:56.451Z,-3.26
2023-02-08T04:49:43.330Z,-3.17
2023-02-08T04:52:30.214Z,-3.15
2023-02-08T04:55:16.953Z,-3.17
2023-02-08T04:58:03.987Z,-3.09
2023-02-08T05:00:50.878Z,-3.13
2023-02-08T05:03:38.816Z,-3.04
2023-02-08T05:06:25.532Z,-3.02
2023-02-08T05:09:12.221Z,-3.07
2023-02-08T05:11:58.920Z,-2.96
2023-02-08T05:14:45.912Z,-2.98
2023-02-08T05:17:32.649Z,-2.88
2023-02-08T05:20:21.687Z,-2.88
2023-02-08T05:23:08.245Z,-2.93
2023-02-08T05:25:55.070Z,-3.20
2023-02-08T05:28:41.757Z,-3.22
2023-02-08T05:31:28.653Z,-3.20
2023-02-08T05:34:15.600Z,-3.17
2023-02-08T05:37:03.784Z,-3.13
2023-02-08T05:39:50.542Z,-3.07
2023-02-08T05:42:37.291Z,-3.02
2023-02-08T05:45:24.107Z,-2.99
2023-02-08T05:48:10.920Z,-2.93
2023-02-08T05:50:58.155Z,-2.79
2023-02-08T05:53:45.859Z,-2.89
2023-02-08T05:56:32.980Z,-2.85
2023-02-08T05:59:19.633Z,-2.81
2023-02-08T06:02:06.462Z,-2.78
2023-02-08T06:04:53.213Z,-2.95
2023-02-08T06:07:40.150Z,-2.80
2023-02-08T06:10:28.410Z,-2.87
2023-02-08T06:13:16.011Z,-2.82
2023-02-08T06:16:02.826Z,-2.79
2023-02-08T06:18:49.600Z,-2.84
2023-02-08T06:21:36.389Z,-2.81
2023-02-08T06:24:23.164Z,-2.82
2023-02-08T06:27:11.528Z,-2.86
2023-02-08T06:29:58.411Z,-2.65
2023-02-08T06:32:45.180Z,-2.56
2023-02-08T06:35:32.861Z,-2.50
2023-02-08T06:38:19.543Z,-2.43
2023-02-08T06:41:06.732Z,-2.43
2023-02-08T06:43:54.536Z,-2.41
2023-02-08T06:46:41.436Z,-2.36
2023-02-08T06:49:28.201Z,-2.37
2023-02-08T06:52:15.074Z,-2.33
2023-02-08T06:55:01.842Z,-2.19
2023-02-08T06:57:48.771Z,-2.20
2023-02-08T07:00:39.431Z,-2.14
2023-02-08T07:03:26.180Z,-1.99
2023-02-08T07:06:14.208Z,-1.99
2023-02-08T07:09:02.950Z,-2.18
2023-02-08T07:11:50.874Z,-1.91
2023-02-08T07:14:40.975Z,-2.19
2023-02-08T07:17:31.463Z,-1.83
2023-02-08T07:20:20.563Z,-1.72
2023-02-08T07:23:08.370Z,-1.61
2023-02-08T07:26:00.829Z,-1.61
2023-02-08T07:28:48.704Z,-1.56
2023-02-08T07:31:36.989Z,-1.46
2023-02-08T07:34:26.674Z,-1.38
2023-02-08T07:37:19.545Z,-1.41
2023-02-08T07:40:07.100Z,-1.24
2023-02-08T07:42:53.743Z,-1.11
2023-02-08T07:45:50.618Z,-1.01
2023-02-08T07:48:40.100Z,-0.99
2023-02-08T07:51:28.432Z,-0.90
2023-02-08T07:54:15.103Z,-0.88
2023-02-08T07:57:03.673Z,-1.06
2023-02-08T07:59:51.289Z,-0.73
2023-02-08T08:02:38.634Z,-0.51
2023-02-08T08:05:25.350Z,-0.25
2023-02-08T08:08:14.151Z,-0.06
2023-02-08T08:11:03.436Z,0.05
2023-02-08T08:13:50.920Z,0.17
2023-02-08T08:16:37.720Z,0.26
2023-02-08T08:19:24.497Z,0.53
2023-02-08T08:22:11.089Z,0.44
2023-02-08T08:25:00.145Z,0.61
2023-02-08T08:27:47.050Z,0.71
2023-02-08T08:30:33.778Z,0.77
2023-02-08T08:33:21.247Z,0.93
2023-02-08T08:36:08.873Z,1.03
2023-02-08T08:38:55.775Z,1.23
2023-02-08T08:41:44.106Z,1.45
2023-02-08T08:44:30.901Z,1.41
2023-02-08T08:47:17.861Z,1.70
2023-02-08T08:50:04.886Z,1.78
2023-02-08T08:52:51.331Z,1.83
2023-02-08T08:55:38.116Z,1.90
2023-02-08T08:58:26.505Z,1.98
2023-02-08T09:01:14.250Z,2.04
2023-02-08T09:04:01.325Z,1.96
2023-02-08T09:06:47.841Z,2.12
2023-02-08T09:09:34.645Z,2.19
2023-02-08T09:12:21.267Z,1.97
2023-02-08T09:15:10.067Z,2.16
2023-02-08T09:17:57.116Z,2.50
2023-02-08T09:20:44.356Z,2.05
2023-02-08T09:23:31.320Z,2.39
2023-02-08T09:26:20.740Z,2.58
2023-02-08T09:29:07.815Z,2.13
2023-02-08T09:31:55.660Z,2.49
2023-02-08T09:34:42.311Z,2.66
2023-02-08T09:37:29.437Z,2.42
2023-02-08T09:40:24.104Z,2.58
2023-02-08T09:43:14.239Z,2.58
2023-02-08T09:46:06.577Z,2.63
2023-02-08T09:48:59.462Z,2.72
2023-02-08T09:51:52.471Z,2.60
2023-02-08T09:54:44.680Z,2.78
2023-02-08T09:57:36.083Z,2.93
2023-02-08T10:00:29.093Z,2.79
2023-02-08T10:03:26.738Z,2.93
2023-02-08T10:06:17.476Z,2.67
2023-02-08T10:09:07.467Z,2.71
2023-02-08T10:12:07.078Z,3.04
2023-02-08T10:15:03.065Z,3.21
2023-02-08T10:18:05.658Z,3.00
2023-02-08T10:21:04.924Z,3.37
2023-02-08T10:24:15.041Z,3.33
2023-02-08T10:27:11.806Z,3.50
2023-02-08T10:30:12.033Z,3.79
2023-02-08T10:33:02.497Z,4.05
2023-02-08T10:35:51.750Z,3.77
2023-02-08T10:38:46.770Z,3.76
2023-02-08T10:41:38.181Z,4.06
2023-02-08T10:44:32.181Z,3.76
2023-02-08T10:47:26.745Z,4.23
2023-02-08T10:50:21.966Z,4.43
2023-02-08T10:53:15.921Z,4.80
2023-02-08T10:56:02.697Z,5.41
2023-02-08T10:58:50.946Z,5.49
2023-02-08T11:01:37.567Z,5.84
2023-02-08T11:04:24.433Z,6.00
2023-02-08T11:07:22.286Z,5.65
2023-02-08T11:10:24.782Z,5.58
2023-02-08T11:13:19.188Z,5.09
2023-02-08T11:16:08.988Z,5.05
2023-02-08T11:18:58.279Z,5.25
2023-02-08T11:21:51.998Z,5.25
2023-02-08T11:24:41.620Z,5.27
2023-02-08T11:27:34.678Z,5.20
2023-02-08T11:30:24.437Z,4.93
2023-02-08T11:33:23.397Z,5.02
2023-02-08T11:36:14.650Z,4.73
2023-02-08T11:39:03.564Z,4.74
2023-02-08T11:41:52.796Z,4.72
2023-02-08T11:44:45.938Z,4.57
2023-02-08T11:47:35.768Z,4.35
2023-02-08T11:50:27.828Z,4.35
2023-02-08T11:53:27.829Z,4.25
2023-02-08T11:56:20.898Z,4.44
2023-02-08T11:59:20.340Z,4.43
2023-02-08T12:02:28.453Z,4.46
2023-02-08T12:05:19.017Z,4.34
2023-02-08T12:08:14.866Z,4.69
2023-02-08T12:11:13.888Z,4.63
2023-02-08T12:14:28.372Z,4.57
2023-02-08T12:17:47.649Z,4.84
2023-02-08T12:20:42.296Z,5.05
2023-02-08T12:23:49.688Z,5.07
2023-02-08T12:27:02.578Z,5.14
2023-02-08T12:29:56.897Z,5.00
2023-02-08T12:32:58.298Z,5.16
2023-02-08T12:36:05.581Z,5.12
2023-02-08T12:39:48.167Z,5.17
2023-02-08T12:42:55.823Z,5.28
2023-02-08T12:46:01.377Z,5.13
2023-02-08T12:49:08.254Z,4.96
2023-02-08T12:52:04.136Z,5.17
2023-02-08T12:54:58.197Z,5.41
2023-02-08T12:57:49.119Z,5.32
2023-02-08T13:00:42.355Z,5.52
2023-02-08T13:03:43.119Z,5.66
2023-02-08T13:06:37.374Z,5.56
2023-02-08T13:09:40.258Z,5.52
2023-02-08T13:12:32.125Z,5.67
2023-02-08T13:15:42.223Z,5.40
2023-02-08T13:18:34.250Z,5.39
2023-02-08T13:21:23.956Z,5.35
2023-02-08T13:24:27.678Z,5.09
2023-02-08T13:27:17.885Z,5.41
2023-02-08T13:30:07.441Z,5.48
2023-02-08T13:32:56.463Z,5.41
2023-02-08T13:35:43.540Z,5.61
2023-02-08T13:38:32.954Z,5.50
2023-02-08T13:41:21.848Z,5.45
2023-02-08T13:44:17.907Z,5.52
2023-02-08T13:47:07.384Z,5.61
2023-02-08T13:49:57.151Z,5.17
2023-02-08T13:52:53.953Z,5.08
2023-02-08T13:55:56.066Z,5.14
2023-02-08T13:59:04.690Z,5.04
2023-02-08T14:02:23.683Z,5.10
2023-02-08T14:05:35.707Z,5.05
2023-02-08T14:08:25.812Z,5.21
2023-02-08T14:11:18.157Z,5.25
2023-02-08T14:14:14.724Z,5.27
2023-02-08T14:17:19.208Z,5.00
2023-02-08T14:20:09.049Z,5.13
2023-02-08T14:22:58.125Z,5.00
2023-02-08T14:25:48.242Z,4.98
2023-02-08T14:28:38.594Z,4.89
2023-02-08T14:31:38.255Z,4.33
2023-02-08T14:34:34.897Z,4.80
2023-02-08T14:37:31.360Z,4.74
2023-02-08T14:40:50.656Z,4.73
2023-02-08T14:43:38.352Z,4.69
2023-02-08T14:46:45.654Z,4.85
2023-02-08T14:49:39.226Z,4.69
2023-02-08T14:52:27.297Z,4.51
2023-02-08T14:55:20.486Z,4.46
2023-02-08T14:58:08.580Z,4.40
2023-02-08T15:00:57.380Z,4.35
2023-02-08T15:03:46.348Z,4.31
2023-02-08T15:07:01.723Z,4.17
2023-02-08T15:09:48.961Z,4.26
2023-02-08T15:12:39.674Z,4.21
2023-02-08T15:15:29.727Z,4.19
2023-02-08T15:18:21.146Z,4.23
2023-02-08T15:21:16.618Z,4.18
2023-02-08T15:24:06.034Z,3.88
2023-02-08T15:26:55.131Z,3.76
2023-02-08T15:29:45.673Z,3.86
2023-02-08T15:32:32.592Z,3.82
2023-02-08T15:35:23.084Z,3.77
2023-02-08T15:38:18.361Z,3.72
2023-02-08T15:41:08.082Z,3.43
2023-02-08T15:44:04.291Z,3.24
2023-02-08T15:49:43.694Z,3.66
2023-02-08T15:52:32.891Z,3.43
2023-02-08T15:55:19.978Z,3.11
2023-02-08T15:58:09.670Z,3.13
2023-02-08T16:00:58.501Z,3.18
2023-02-08T16:03:50.518Z,2.95
2023-02-08T16:06:40.386Z,2.84
2023-02-08T16:09:30.346Z,2.63
2023-02-08T16:12:22.134Z,2.51
2023-02-08T16:15:38.704Z,2.62
2023-02-08T16:18:39.340Z,2.51
2023-02-08T16:21:35.962Z,2.46
2023-02-08T16:24:26.607Z,2.38
2023-02-08T16:27:25.596Z,2.31
2023-02-08T16:30:19.227Z,2.30
2023-02-08T16:33:10.158Z,1.86
2023-02-08T16:36:01.975Z,1.95
2023-02-08T16:39:28.152Z,1.85
2023-02-08T16:42:33.920Z,1.84
2023-02-08T16:45:22.728Z,1.88
2023-02-08T16:48:28.874Z,1.83
2023-02-08T16:51:19.100Z,1.91
2023-02-08T16:54:08.103Z,1.82
2023-02-08T16:57:00.054Z,1.79
2023-02-08T16:59:46.816Z,1.83
2023-02-08T17:02:33.631Z,1.78
2023-02-08T17:05:22.508Z,1.74
2023-02-08T17:08:14.165Z,1.71
2023-02-08T17:11:02.434Z,1.65
2023-02-08T17:13:49.008Z,1.68
2023-02-08T17:16:37.045Z,1.85
2023-02-08T17:19:23.605Z,1.86
2023-02-08T17:22:10.285Z,1.67
2023-02-08T17:24:57.107Z,1.64
2023-02-08T17:27:45.392Z,1.60
2023-02-08T17:30:34.053Z,1.65
2023-02-08T17:33:20.759Z,1.51
2023-02-08T17:36:09.529Z,1.40
2023-02-08T17:38:56.113Z,1.64
2023-02-08T17:41:42.881Z,1.82
2023-02-08T17:44:30.900Z,1.42
2023-02-08T17:47:17.823Z,1.50
2023-02-08T17:50:04.686Z,1.15
2023-02-08T17:52:52.597Z,1.19
2023-02-08T17:55:45.445Z,1.40
2023-02-08T17:58:32.968Z,1.16
2023-02-08T18:01:23.699Z,1.09
2023-02-08T18:04:11.647Z,1.09
2023-02-08T18:06:58.166Z,1.36
2023-02-08T18:09:44.879Z,1.39
2023-02-08T18:12:31.713Z,1.25
2023-02-08T18:15:20.914Z,1.26
2023-02-08T18:18:09.083Z,0.98
2023-02-08T18:20:56.756Z,1.05
2023-02-08T18:23:44.144Z,0.99
2023-02-08T18:26:33.645Z,1.12
2023-02-08T18:29:20.451Z,1.21
2023-02-08T18:32:07.404Z,1.07
2023-02-08T18:34:56.904Z,1.03
2023-02-08T18:37:44.368Z,1.22
2023-02-08T18:40:32.274Z,1.04
2023-02-08T18:43:19.720Z,1.14
2023-02-08T18:46:09.994Z,1.14
2023-02-08T18:48:56.756Z,0.93
2023-02-08T18:51:45.888Z,0.75
2023-02-08T18:54:32.342Z,0.92
2023-02-08T18:57:19.417Z,0.82
2023-02-08T19:00:06.571Z,0.65
2023-02-08T19:02:53.111Z,0.60
2023-02-08T19:05:41.836Z,1.07
2023-02-08T19:08:30.177Z,0.97
2023-02-08T19:11:19.884Z,1.04
2023-02-08T19:14:09.094Z,0.96
2023-02-08T19:16:55.964Z,0.98
2023-02-08T19:19:44.602Z,0.70
2023-02-08T19:22:31.124Z,0.64
2023-02-08T19:25:20.958Z,0.56
2023-02-08T19:28:08.202Z,0.55
2023-02-08T19:31:03.714Z,0.77
2023-02-08T19:33:53.611Z,0.73
2023-02-08T19:36:44.169Z,0.61
2023-02-08T19:39:31.013Z,0.56
2023-02-08T19:42:19.635Z,0.57
2023-02-08T19:45:06.814Z,0.42
2023-02-08T19:47:55.069Z,0.34
2023-02-08T19:50:42.927Z,0.43
2023-02-08T19:53:30.517Z,0.69
2023-02-08T19:56:19.293Z,0.91
2023-02-08T19:59:09.961Z,0.64
2023-02-08T20:01:56.979Z,0.83
2023-02-08T20:04:43.619Z,0.36
2023-02-08T20:07:30.753Z,0.65
2023-02-08T20:10:17.575Z,0.79
2023-02-08T20:13:04.455Z,0.72
2023-02-08T20:15:59.745Z,0.62
2023-02-08T20:18:46.410Z,0.76
2023-02-08T20:21:39.642Z,0.81
2023-02-08T20:24:26.167Z,0.52
2023-02-08T20:27:13.150Z,0.41
2023-02-08T20:30:00.062Z,0.40
2023-02-08T20:32:48.433Z,0.41
2023-02-08T20:35:37.097Z,0.26
2023-02-08T20:38:23.770Z,0.68
2023-02-08T20:41:13.302Z,0.52
2023-02-08T20:43:59.781Z,0.54
2023-02-08T20:46:46.764Z,0.59
2023-02-08T20:49:34.834Z,0.77
2023-02-08T20:52:21.676Z,0.65
2023-02-08T20:55:09.461Z,0.87
2023-02-08T20:57:56.330Z,1.16
2023-02-08T21:00:44.982Z,1.19
2023-02-08T21:03:32.519Z,1.23
2023-02-08T21:06:23.550Z,1.04
2023-02-08T21:09:13.384Z,0.98
2023-02-08T21:12:00.012Z,1.08
2023-02-08T21:14:46.856Z,1.26
2023-02-08T21:17:33.621Z,1.03
2023-02-08T21:20:20.619Z,1.16
2023-02-08T21:23:08.853Z,1.22
2023-02-08T21:25:55.394Z,1.16
2023-02-08T21:28:43.362Z,1.06
2023-02-08T21:31:30.439Z,1.17
2023-02-08T21:34:19.465Z,1.17
2023-02-08T21:37:06.234Z,1.13
2023-02-08T21:39:54.348Z,1.27
2023-02-08T21:42:41.098Z,1.23
2023-02-08T21:45:31.345Z,0.99
2023-02-08T21:48:20.526Z,1.16
2023-02-08T21:51:24.728Z,1.12
2023-02-08T21:54:33.954Z,1.16
2023-02-08T21:57:26.609Z,1.13
2023-02-08T22:00:25.124Z,1.03
2023-02-08T22:03:13.429Z,1.12
2023-02-08T22:06:23.232Z,1.07
2023-02-08T22:09:12.165Z,1.05
2023-02-08T22:12:02.189Z,1.08
2023-02-08T22:14:53.974Z,1.13
2023-02-08T22:17:49.105Z,1.26
2023-02-08T22:20:38.453Z,1.30
2023-02-08T22:23:27.568Z,1.05
2023-02-08T22:26:15.601Z,1.08
2023-02-08T22:29:04.680Z,1.06
2023-02-08T22:31:53.593Z,1.02
2023-02-08T22:34:41.876Z,1.04
2023-02-08T22:37:30.449Z,0.93
2023-02-08T22:40:19.341Z,1.13
2023-02-08T22:43:08.570Z,1.02
2023-02-08T22:46:01.409Z,1.14
2023-02-08T22:48:51.595Z,0.98
2023-02-08T22:51:39.467Z,0.95
2023-02-08T22:54:28.191Z,0.97
2023-02-08T22:57:14.735Z,0.72
2023-02-08T23:00:01.862Z,0.88
2023-02-08T23:02:48.478Z,0.78
2023-02-08T23:05:42.106Z,0.75
2023-02-08T23:08:28.975Z,0.99
2023-02-08T23:11:16.559Z,0.86
2023-02-08T23:14:04.133Z,0.91
2023-02-08T23:16:51.106Z,1.04
2023-02-08T23:19:38.219Z,1.02
2023-02-08T23:22:26.741Z,1.01
2023-02-08T23:25:13.285Z,0.85
2023-02-08T23:28:00.255Z,0.87
2023-02-08T23:30:48.536Z,0.90
2023-02-08T23:33:36.255Z,0.71
2023-02-08T23:36:24.474Z,0.40
2023-02-08T23:39:12.668Z,0.59
2023-02-08T23:41:59.522Z,0.48
2023-02-08T23:44:46.394Z,0.53
2023-02-08T23:47:33.483Z,0.60
2023-02-08T23:50:20.311Z,0.69
2023-02-08T23:53:09.313Z,0.53
2023-02-08T23:56:06.549Z,0.59
2023-02-08T23:58:56.080Z,0.50
